createdAt,value
2022-09-01T00:01:39.193Z,90.77
2022-09-01T00:04:06.501Z,90.48
2022-09-01T00:06:33.665Z,90.74
2022-09-01T00:09:04.191Z,91.12
2022-09-01T00:11:33.297Z,92.66
2022-09-01T00:14:02.373Z,93.88
2022-09-01T00:16:30.896Z,95.29
2022-09-01T00:18:57.418Z,95.95
2022-09-01T00:21:31.776Z,95.38
2022-09-01T00:23:59.997Z,97.28
2022-09-01T00:26:26.897Z,95.77
2022-09-01T00:28:53.891Z,95.79
2022-09-01T00:31:21.094Z,94.72
2022-09-01T00:33:48.929Z,95.33
2022-09-01T00:36:16.931Z,94.57
2022-09-01T00:38:44.189Z,93.94
2022-09-01T00:41:11.056Z,95.12
2022-09-01T00:43:47.633Z,93.21
2022-09-01T00:46:18.460Z,92.85
2022-09-01T00:48:51.439Z,93.20
2022-09-01T00:51:18.583Z,93.28
2022-09-01T00:53:45.930Z,92.46
2022-09-01T00:56:14.406Z,90.76
2022-09-01T00:58:40.868Z,91.64
2022-09-01T01:01:09.351Z,90.27
2022-09-01T01:03:36.010Z,91.02
2022-09-01T01:06:08.268Z,90.06
2022-09-01T01:08:38.692Z,90.41
2022-09-01T01:11:09.612Z,92.98
2022-09-01T01:13:51.264Z,92.31
2022-09-01T01:16:18.881Z,93.40
2022-09-01T01:18:45.499Z,92.87
2022-09-01T01:21:54.867Z,92.53
2022-09-01T01:24:31.477Z,91.69
2022-09-01T01:27:00.123Z,92.90
2022-09-01T01:29:37.120Z,91.97
2022-09-01T01:32:05.533Z,94.55
2022-09-01T01:34:32.073Z,92.72
2022-09-01T01:36:59.877Z,91.76
2022-09-01T01:39:26.852Z,92.58
2022-09-01T01:41:57.851Z,92.33
2022-09-01T01:44:28.250Z,92.90
2022-09-01T01:46:57.317Z,94.51
2022-09-01T01:49:28.568Z,95.67
2022-09-01T01:51:57.843Z,93.88
2022-09-01T01:54:26.968Z,95.32
2022-09-01T01:56:53.969Z,95.44
2022-09-01T01:59:20.627Z,95.34
2022-09-01T02:01:51.331Z,97.02
2022-09-01T02:04:19.917Z,94.58
2022-09-01T02:06:47.861Z,94.32
2022-09-01T02:09:17.638Z,94.33
2022-09-01T02:11:45.525Z,93.64
2022-09-01T02:14:13.566Z,94.23
2022-09-01T02:16:40.668Z,93.88
2022-09-01T02:19:09.954Z,93.63
2022-09-01T02:21:36.801Z,93.56
2022-09-01T02:24:08.502Z,95.71
2022-09-01T02:26:42.893Z,92.87
2022-09-01T02:29:17.873Z,93.84
2022-09-01T02:31:46.348Z,92.68
2022-09-01T02:34:17.072Z,94.70
2022-09-01T02:36:48.915Z,94.47
2022-09-01T02:39:32.636Z,94.45
2022-09-01T02:42:01.287Z,93.82
2022-09-01T02:44:31.011Z,93.98
2022-09-01T02:46:58.809Z,93.69
2022-09-01T02:49:28.611Z,92.58
2022-09-01T02:51:59.556Z,93.62
2022-09-01T02:54:27.812Z,92.87
2022-09-01T02:56:54.779Z,93.81
2022-09-01T02:59:23.746Z,93.04
2022-09-01T03:01:51.823Z,93.56
2022-09-01T03:04:19.919Z,94.61
2022-09-01T03:06:47.191Z,93.57
2022-09-01T03:09:16.745Z,93.31
2022-09-01T03:11:46.750Z,92.01
2022-09-01T03:14:14.066Z,91.57
2022-09-01T03:16:41.507Z,91.81
2022-09-01T03:19:09.488Z,91.04
2022-09-01T03:21:40.885Z,90.66
2022-09-01T03:24:09.874Z,89.66
2022-09-01T03:26:36.951Z,89.13
2022-09-01T03:29:04.687Z,89.16
2022-09-01T03:31:31.974Z,88.78
2022-09-01T03:33:59.608Z,88.40
2022-09-01T03:36:28.487Z,89.07
2022-09-01T03:38:55.891Z,88.06
2022-09-01T03:41:26.334Z,88.08
2022-09-01T03:43:55.067Z,88.79
2022-09-01T03:46:22.403Z,88.90
2022-09-01T03:48:53.045Z,88.24
2022-09-01T03:51:22.647Z,89.98
2022-09-01T03:53:54.439Z,90.03
2022-09-01T03:56:24.112Z,89.59
2022-09-01T03:58:52.107Z,89.37
2022-09-01T04:01:19.782Z,89.59
2022-09-01T04:03:48.851Z,88.74
2022-09-01T04:06:18.560Z,89.49
2022-09-01T04:08:47.096Z,89.76
2022-09-01T04:11:18.413Z,90.83
2022-09-01T04:13:47.030Z,91.49
2022-09-01T04:16:42.269Z,91.39
2022-09-01T04:19:25.608Z,91.05
2022-09-01T04:21:55.101Z,92.97
2022-09-01T04:24:28.430Z,92.05
2022-09-01T04:27:02.194Z,90.92
2022-09-01T04:29:31.852Z,92.28
2022-09-01T04:32:02.561Z,92.49
2022-09-01T04:34:37.111Z,94.05
2022-09-01T04:37:13.175Z,90.21
2022-09-01T04:39:40.136Z,92.53
2022-09-01T04:42:09.167Z,96.32
2022-09-01T04:44:36.702Z,96.29
2022-09-01T04:47:03.355Z,96.68
2022-09-01T04:49:33.747Z,96.41
2022-09-01T04:52:00.749Z,97.38
2022-09-01T04:54:27.333Z,96.37
2022-09-01T04:56:55.001Z,96.47
2022-09-01T04:59:24.376Z,96.72
2022-09-01T05:01:54.201Z,94.43
2022-09-01T05:04:24.497Z,96.39
2022-09-01T05:06:55.956Z,95.53
2022-09-01T05:09:22.755Z,97.96
2022-09-01T05:11:50.179Z,96.82
2022-09-01T05:14:19.084Z,98.37
2022-09-01T05:16:46.042Z,98.63
2022-09-01T05:19:14.782Z,98.24
2022-09-01T05:21:46.565Z,98.39
2022-09-01T05:24:19.881Z,92.72
2022-09-01T05:26:47.493Z,91.46
2022-09-01T05:29:16.005Z,89.98
2022-09-01T05:31:45.458Z,89.33
2022-09-01T05:34:14.860Z,89.56
2022-09-01T05:36:44.368Z,91.66
2022-09-01T05:39:12.267Z,88.57
2022-09-01T05:41:40.981Z,88.66
2022-09-01T05:44:09.110Z,87.03
2022-09-01T05:46:37.772Z,86.90
2022-09-01T05:49:08.175Z,86.62
2022-09-01T05:51:46.439Z,87.12
2022-09-01T05:54:27.940Z,85.28
2022-09-01T05:57:08.148Z,84.66
2022-09-01T05:59:44.965Z,85.36
2022-09-01T06:02:12.345Z,84.62
2022-09-01T06:04:44.196Z,83.96
2022-09-01T06:07:16.336Z,84.99
2022-09-01T06:09:48.333Z,84.49
2022-09-01T06:12:20.359Z,83.99
2022-09-01T06:14:48.395Z,82.92
2022-09-01T06:17:16.698Z,83.05
2022-09-01T06:19:44.061Z,82.74
2022-09-01T06:22:11.148Z,83.61
2022-09-01T06:24:39.994Z,82.71
2022-09-01T06:27:11.288Z,80.79
2022-09-01T06:29:41.851Z,77.59
2022-09-01T06:32:10.336Z,78.39
2022-09-01T06:34:39.227Z,78.11
2022-09-01T06:37:06.978Z,77.60
2022-09-01T06:39:34.407Z,80.08
2022-09-01T06:42:04.803Z,80.50
2022-09-01T06:44:33.725Z,80.53
2022-09-01T06:47:00.572Z,80.48
2022-09-01T06:49:33.163Z,80.46
2022-09-01T06:52:00.902Z,80.50
2022-09-01T06:54:27.424Z,77.63
2022-09-01T06:56:54.032Z,77.31
2022-09-01T06:59:21.737Z,76.24
2022-09-01T07:01:49.903Z,75.96
2022-09-01T07:04:20.107Z,76.31
2022-09-01T07:07:00.376Z,76.48
2022-09-01T07:09:47.899Z,76.24
2022-09-01T07:12:30.930Z,77.18
2022-09-01T07:17:52.492Z,76.21
2022-09-01T07:20:25.438Z,76.19
2022-09-01T07:23:08.619Z,75.29
2022-09-01T07:26:01.337Z,74.81
2022-09-01T07:28:36.095Z,71.74
2022-09-01T07:33:55.668Z,72.40
2022-09-01T07:45:26.188Z,66.18
2022-09-01T07:47:53.785Z,67.83
2022-09-01T07:53:11.135Z,65.71
2022-09-01T07:55:41.471Z,66.96
2022-09-01T07:58:10.960Z,63.63
2022-09-01T08:00:39.877Z,63.54
2022-09-01T08:03:06.605Z,61.18
2022-09-01T08:05:33.648Z,60.40
2022-09-01T08:08:01.127Z,63.77
2022-09-01T08:10:28.369Z,64.66
2022-09-01T08:12:56.796Z,60.74
2022-09-01T08:16:06.382Z,63.22
2022-09-01T08:18:14.221Z,60.30
2022-09-01T08:20:47.433Z,63.36
2022-09-01T08:23:18.534Z,61.43
2022-09-01T08:25:46.726Z,64.60
2022-09-01T08:28:14.833Z,58.64
2022-09-01T08:30:49.186Z,61.38
2022-09-01T08:33:19.538Z,60.51
2022-09-01T08:35:48.188Z,60.22
2022-09-01T08:38:15.087Z,59.04
2022-09-01T08:40:43.599Z,60.00
2022-09-01T08:43:32.933Z,54.99
2022-09-01T08:46:10.761Z,56.65
2022-09-01T08:49:24.195Z,56.12
2022-09-01T08:51:46.694Z,59.88
2022-09-01T08:54:52.415Z,58.40
2022-09-01T08:57:31.066Z,58.47
2022-09-01T08:59:57.968Z,60.94
2022-09-01T09:02:30.506Z,60.05
2022-09-01T09:05:22.649Z,62.50
2022-09-01T09:08:16.263Z,60.47
2022-09-01T09:10:56.777Z,61.77
2022-09-01T09:14:07.425Z,58.54
2022-09-01T09:16:51.544Z,59.85
2022-09-01T09:19:36.487Z,55.48
2022-09-01T09:22:11.315Z,59.07
2022-09-01T09:24:56.363Z,61.31
2022-09-01T09:27:35.560Z,52.80
2022-09-01T09:30:12.024Z,54.52
2022-09-01T09:33:51.443Z,54.37
2022-09-01T09:35:54.956Z,53.86
2022-09-01T09:38:33.560Z,61.19
2022-09-01T09:41:18.870Z,52.76
2022-09-01T09:43:47.508Z,51.52
2022-09-01T09:46:32.584Z,52.80
2022-09-01T09:49:36.553Z,48.09
2022-09-01T09:52:09.832Z,46.64
2022-09-01T09:54:38.903Z,48.64
2022-09-01T09:57:08.118Z,49.50
2022-09-01T10:00:00.398Z,45.28
2022-09-01T10:02:40.094Z,45.17
2022-09-01T10:05:37.512Z,44.47
2022-09-01T10:08:15.730Z,45.92
2022-09-01T10:10:57.629Z,46.02
2022-09-01T10:13:27.456Z,43.33
2022-09-01T10:16:05.571Z,43.00
2022-09-01T10:18:37.742Z,42.21
2022-09-01T10:21:30.730Z,41.28
2022-09-01T10:26:52.928Z,40.48
2022-09-01T10:29:26.884Z,46.52
2022-09-01T10:32:14.801Z,46.95
2022-09-01T10:34:42.981Z,46.71
2022-09-01T10:37:11.724Z,46.71
2022-09-01T10:40:09.754Z,41.93
2022-09-01T10:42:37.043Z,45.27
2022-09-01T10:45:04.225Z,43.30
2022-09-01T10:47:37.844Z,43.53
2022-09-01T10:50:26.495Z,46.67
2022-09-01T10:52:55.721Z,42.19
2022-09-01T10:55:27.101Z,46.18
2022-09-01T11:00:35.447Z,44.25
2022-09-01T11:03:34.150Z,43.94
2022-09-01T11:06:13.218Z,44.11
2022-09-01T11:08:51.024Z,45.09
2022-09-01T11:11:32.415Z,46.72
2022-09-01T11:14:00.856Z,42.08
2022-09-01T11:16:53.695Z,43.47
2022-09-01T11:19:27.437Z,44.39
2022-09-01T11:22:18.832Z,42.71
2022-09-01T11:24:54.587Z,42.00
2022-09-01T11:27:49.261Z,42.59
2022-09-01T11:30:35.765Z,42.81
2022-09-01T11:33:11.470Z,42.46
2022-09-01T11:35:38.263Z,41.98
2022-09-01T11:38:07.840Z,43.31
2022-09-01T11:40:36.206Z,42.73
2022-09-01T11:43:12.744Z,43.86
2022-09-01T11:46:08.611Z,42.89
2022-09-01T11:48:41.280Z,44.62
2022-09-01T11:51:07.844Z,46.10
2022-09-01T11:53:43.259Z,44.34
2022-09-01T11:56:36.165Z,43.84
2022-09-01T11:59:02.715Z,43.84
2022-09-01T12:01:38.164Z,44.77
2022-09-01T12:04:28.597Z,45.48
2022-09-01T12:06:59.763Z,45.26
2022-09-01T12:09:39.453Z,44.61
2022-09-01T12:12:07.691Z,45.86
2022-09-01T12:14:55.012Z,45.38
2022-09-01T12:17:21.281Z,44.55
2022-09-01T12:19:47.830Z,44.05
2022-09-01T12:22:20.284Z,45.24
2022-09-01T12:24:51.151Z,45.56
2022-09-01T12:27:18.174Z,43.48
2022-09-01T12:29:45.735Z,44.63
2022-09-01T12:32:14.529Z,45.84
2022-09-01T12:34:47.915Z,44.73
2022-09-01T12:37:24.740Z,45.74
2022-09-01T12:39:54.881Z,46.33
2022-09-01T12:42:21.431Z,47.52
2022-09-01T12:45:08.989Z,47.65
2022-09-01T12:47:48.019Z,44.09
2022-09-01T12:50:16.579Z,44.92
2022-09-01T12:52:52.493Z,44.05
2022-09-01T12:58:25.549Z,43.88
2022-09-01T13:00:57.027Z,42.13
2022-09-01T13:03:24.104Z,44.45
2022-09-01T13:05:53.595Z,43.85
2022-09-01T13:08:34.944Z,42.51
2022-09-01T13:11:11.339Z,43.55
2022-09-01T13:13:38.611Z,44.20
2022-09-01T13:16:13.112Z,43.96
2022-09-01T13:21:30.078Z,43.82
2022-09-01T13:23:57.129Z,45.09
2022-09-01T13:26:24.081Z,44.58
2022-09-01T13:28:51.566Z,44.23
2022-09-01T13:31:34.364Z,45.51
2022-09-01T13:34:10.928Z,44.11
2022-09-01T13:36:49.311Z,43.85
2022-09-01T13:39:19.225Z,43.86
2022-09-01T13:41:47.325Z,44.38
2022-09-01T13:44:14.124Z,45.14
2022-09-01T13:50:05.161Z,44.22
2022-09-01T13:52:16.669Z,44.93
2022-09-01T13:54:44.530Z,43.20
2022-09-01T13:57:11.904Z,43.92
2022-09-01T13:59:39.013Z,44.12
2022-09-01T14:02:05.907Z,43.86
2022-09-01T14:04:32.468Z,43.79
2022-09-01T14:07:01.729Z,43.71
2022-09-01T14:09:28.329Z,44.32
2022-09-01T14:11:55.800Z,43.86
2022-09-01T14:14:22.916Z,42.05
2022-09-01T14:16:49.774Z,42.88
2022-09-01T14:19:16.487Z,43.29
2022-09-01T14:21:44.128Z,43.76
2022-09-01T14:24:12.570Z,44.51
2022-09-01T14:26:42.263Z,44.62
2022-09-01T14:29:09.457Z,45.01
2022-09-01T14:31:37.749Z,44.82
2022-09-01T14:34:04.872Z,45.35
2022-09-01T14:36:31.645Z,45.92
2022-09-01T14:38:59.428Z,44.89
2022-09-01T14:41:26.854Z,45.00
2022-09-01T14:43:57.683Z,45.20
2022-09-01T14:46:26.388Z,46.50
2022-09-01T14:48:53.246Z,46.49
2022-09-01T14:52:09.734Z,46.21
2022-09-01T14:54:13.133Z,46.70
2022-09-01T14:56:40.230Z,46.58
2022-09-01T14:59:08.397Z,46.12
2022-09-01T15:01:35.280Z,47.27
2022-09-01T15:04:02.206Z,47.64
2022-09-01T15:06:28.786Z,47.19
2022-09-01T15:08:55.354Z,47.43
2022-09-01T15:11:21.993Z,47.40
2022-09-01T15:13:52.061Z,48.00
2022-09-01T15:16:21.751Z,48.30
2022-09-01T15:18:49.975Z,46.22
2022-09-01T15:21:20.561Z,48.22
2022-09-01T15:23:48.605Z,47.79
2022-09-01T15:26:16.984Z,46.65
2022-09-01T15:28:48.188Z,46.69
2022-09-01T15:31:18.130Z,46.13
2022-09-01T15:33:46.055Z,47.02
2022-09-01T15:36:18.889Z,47.54
2022-09-01T15:38:46.120Z,46.75
2022-09-01T15:41:26.767Z,47.45
2022-09-01T15:43:54.222Z,47.90
2022-09-01T15:46:21.349Z,48.44
2022-09-01T15:48:49.013Z,48.66
2022-09-01T15:51:24.519Z,48.38
2022-09-01T15:53:54.257Z,47.84
2022-09-01T15:56:21.177Z,48.17
2022-09-01T15:59:00.740Z,49.20
2022-09-01T16:01:31.120Z,49.44
2022-09-01T16:03:57.804Z,49.53
2022-09-01T16:06:26.271Z,49.04
2022-09-01T16:08:54.361Z,50.48
2022-09-01T16:11:24.985Z,49.46
2022-09-01T16:13:53.806Z,49.38
2022-09-01T16:16:45.495Z,50.04
2022-09-01T16:19:47.539Z,50.51
2022-09-01T16:22:22.465Z,50.84
2022-09-01T16:24:56.448Z,50.56
2022-09-01T16:27:32.573Z,49.07
2022-09-01T16:30:08.141Z,49.40
2022-09-01T16:32:36.031Z,48.99
2022-09-01T16:35:04.301Z,48.71
2022-09-01T16:37:46.067Z,48.26
2022-09-01T16:40:21.802Z,48.45
2022-09-01T16:43:28.165Z,48.72
2022-09-01T16:46:03.488Z,48.63
2022-09-01T16:48:55.049Z,48.70
2022-09-01T16:51:35.543Z,47.81
2022-09-01T16:54:25.054Z,47.68
2022-09-01T16:57:12.349Z,47.47
2022-09-01T16:59:53.345Z,47.72
2022-09-01T17:02:38.178Z,47.64
2022-09-01T17:05:25.131Z,46.77
2022-09-01T17:08:21.703Z,46.68
2022-09-01T17:11:05.773Z,47.30
2022-09-01T17:13:42.783Z,47.01
2022-09-01T17:16:22.160Z,46.74
2022-09-01T17:19:01.602Z,46.65
2022-09-01T17:21:43.057Z,46.45
2022-09-01T17:24:34.467Z,46.67
2022-09-01T17:27:07.671Z,47.23
2022-09-01T17:29:46.566Z,46.84
2022-09-01T17:32:51.005Z,46.94
2022-09-01T17:35:53.115Z,46.93
2022-09-01T17:39:03.366Z,47.83
2022-09-01T17:41:54.532Z,48.20
2022-09-01T17:44:55.409Z,47.96
2022-09-01T17:47:45.226Z,48.54
2022-09-01T17:50:40.597Z,49.13
2022-09-01T17:53:36.293Z,49.42
2022-09-01T17:56:42.050Z,50.07
2022-09-01T17:59:33.959Z,50.12
2022-09-01T18:02:27.313Z,50.52
2022-09-01T18:05:06.428Z,50.58
2022-09-01T18:07:48.391Z,50.83
2022-09-01T18:10:24.604Z,51.05
2022-09-01T18:12:59.556Z,51.38
2022-09-01T18:15:27.245Z,51.96
2022-09-01T18:18:06.319Z,53.38
2022-09-01T18:20:43.387Z,54.17
2022-09-01T18:23:13.776Z,54.13
2022-09-01T18:25:52.897Z,53.52
2022-09-01T18:28:19.569Z,53.65
2022-09-01T18:31:08.957Z,54.21
2022-09-01T18:33:52.416Z,53.97
2022-09-01T18:36:28.002Z,53.52
2022-09-01T18:38:59.038Z,53.54
2022-09-01T18:41:44.173Z,53.92
2022-09-01T18:45:05.365Z,54.48
2022-09-01T18:48:10.441Z,54.56
2022-09-01T18:50:58.299Z,54.73
2022-09-01T18:53:27.896Z,54.25
2022-09-01T18:56:11.063Z,54.23
2022-09-01T18:59:12.842Z,54.48
2022-09-01T19:02:02.148Z,54.31
2022-09-01T19:04:36.859Z,53.81
2022-09-01T19:07:09.098Z,53.63
2022-09-01T19:09:58.350Z,53.36
2022-09-01T19:12:47.132Z,53.49
2022-09-01T19:15:32.954Z,53.29
2022-09-01T19:18:25.144Z,53.01
2022-09-01T19:20:56.977Z,52.41
2022-09-01T19:23:26.588Z,52.28
2022-09-01T19:26:02.154Z,51.61
2022-09-01T19:28:43.780Z,51.56
2022-09-01T19:31:23.026Z,51.37
2022-09-01T19:33:57.580Z,51.64
2022-09-01T19:36:36.096Z,52.03
2022-09-01T19:39:06.628Z,52.47
2022-09-01T19:41:39.620Z,52.64
2022-09-01T19:44:17.198Z,52.76
2022-09-01T19:46:49.658Z,53.02
2022-09-01T19:49:23.222Z,53.50
2022-09-01T19:52:05.639Z,53.64
2022-09-01T19:54:52.674Z,53.84
2022-09-01T19:57:19.175Z,54.11
2022-09-01T20:00:50.665Z,54.24
2022-09-01T20:03:25.769Z,54.47
2022-09-01T20:05:58.074Z,54.36
2022-09-01T20:08:52.347Z,54.90
2022-09-01T20:11:30.749Z,55.14
2022-09-01T20:14:13.002Z,55.29
2022-09-01T20:16:48.385Z,54.59
2022-09-01T20:19:30.362Z,54.79
2022-09-01T20:22:12.833Z,54.86
2022-09-01T20:24:39.756Z,54.74
2022-09-01T20:27:34.082Z,54.38
2022-09-01T20:30:14.214Z,54.16
2022-09-01T20:33:02.725Z,54.16
2022-09-01T20:35:44.362Z,54.10
2022-09-01T20:38:44.831Z,54.14
2022-09-01T20:41:20.387Z,54.05
2022-09-01T20:43:52.172Z,54.43
2022-09-01T20:46:20.402Z,54.30
2022-09-01T20:48:47.696Z,54.58
2022-09-01T20:51:21.577Z,54.58
2022-09-01T20:54:15.276Z,54.29
2022-09-01T20:56:57.221Z,54.59
2022-09-01T20:59:42.342Z,54.90
2022-09-01T21:02:24.604Z,54.78
2022-09-01T21:05:24.300Z,55.02
2022-09-01T21:08:18.545Z,55.33
2022-09-01T21:11:12.630Z,54.80
2022-09-01T21:13:39.351Z,54.40
2022-09-01T21:16:15.743Z,54.42
2022-09-01T21:19:08.218Z,54.75
2022-09-01T21:21:53.194Z,54.85
2022-09-01T21:24:20.983Z,54.56
2022-09-01T21:26:49.130Z,54.35
2022-09-01T21:30:03.912Z,54.68
2022-09-01T21:32:33.664Z,54.44
2022-09-01T21:35:00.768Z,54.10
2022-09-01T21:37:28.417Z,54.20
2022-09-01T21:39:55.843Z,53.68
2022-09-01T21:42:43.978Z,53.88
2022-09-01T21:45:14.247Z,53.59
2022-09-01T21:47:42.806Z,53.56
2022-09-01T21:50:09.471Z,53.62
2022-09-01T21:52:36.135Z,53.48
2022-09-01T21:55:02.882Z,53.34
2022-09-01T21:57:29.429Z,52.64
2022-09-01T21:59:55.987Z,53.09
2022-09-01T22:02:22.745Z,53.02
2022-09-01T22:04:55.055Z,52.77
2022-09-01T22:07:21.581Z,52.75
2022-09-01T22:09:48.368Z,52.96
2022-09-01T22:12:14.948Z,53.36
2022-09-01T22:14:41.489Z,53.04
2022-09-01T22:17:08.262Z,53.29
2022-09-01T22:19:36.094Z,53.50
2022-09-01T22:22:03.439Z,53.07
2022-09-01T22:24:30.245Z,53.08
2022-09-01T22:26:56.911Z,53.00
2022-09-01T22:29:23.567Z,52.91
2022-09-01T22:31:50.155Z,52.54
2022-09-01T22:34:16.863Z,53.22
2022-09-01T22:36:46.363Z,52.90
2022-09-01T22:39:14.757Z,52.92
2022-09-01T22:41:41.883Z,53.11
2022-09-01T22:44:09.816Z,53.36
2022-09-01T22:46:38.461Z,53.77
2022-09-01T22:49:06.472Z,53.73
2022-09-01T22:51:34.614Z,54.03
2022-09-01T22:54:01.189Z,53.88
2022-09-01T22:56:30.197Z,53.96
2022-09-01T22:58:58.608Z,54.36
2022-09-01T23:01:30.026Z,54.70
2022-09-01T23:03:59.523Z,54.98
2022-09-01T23:06:28.325Z,55.39
2022-09-01T23:08:57.108Z,56.08
2022-09-01T23:11:23.989Z,56.30
2022-09-01T23:13:50.916Z,56.84
2022-09-01T23:16:20.251Z,56.56
2022-09-01T23:18:48.878Z,56.10
2022-09-01T23:21:18.648Z,56.36
2022-09-01T23:23:45.788Z,56.46
2022-09-01T23:26:13.616Z,56.19
2022-09-01T23:28:41.955Z,56.48
2022-09-01T23:31:10.612Z,56.51
2022-09-01T23:33:37.566Z,56.22
2022-09-01T23:36:09.826Z,56.67
2022-09-01T23:38:37.160Z,56.81
2022-09-01T23:41:09.954Z,56.90
2022-09-01T23:43:37.346Z,57.49
2022-09-01T23:46:05.009Z,57.63
2022-09-01T23:48:31.819Z,59.20
2022-09-01T23:51:06.032Z,59.38
2022-09-01T23:53:34.579Z,59.45
2022-09-01T23:56:05.196Z,60.49
2022-09-01T23:58:32.215Z,60.11
